AUA9087 LOWW-LGSK
Flight info
| Callsign | AUA9087 |
|---|---|
| Flight time | 1h 33m |
| Altitude | 35000 |
| Route | ARSIN DCT NALOX DCT BABIT DCT TADAM DCT REDVA UL616 KOGAT DCT TALAS UM749 ELPIS SIGF1C SKP UM749 SIGFO |
| Aircraft | A321/M-SDE3FGHIRWY/LB1 |
Departure
| Time | 2026-04-21 11:58 |
|---|---|
| Airport | Vienna International Airport (LOWW) |
Arrival
| Time | 2026-04-21 13:32 |
|---|---|
| Airport | Skiathos Island National Airport (LGSK) |
| Time | Latitude | Longitude | Altitude | Speed | Heading |
|---|---|---|---|---|---|
| 2026-04-21 11:21 | 48.11829 | 16.56987 | 620 ft | 0 kts | 206° |
| 2026-04-21 11:49 | 48.11834 | 16.56990 | 627 ft | 4 kts | 205° |
| 2026-04-21 11:49 | 48.11858 | 16.57005 | 625 ft | 4 kts | 192° |
| 2026-04-21 11:49 | 48.11885 | 16.57008 | 622 ft | 4 kts | 166° |
| 2026-04-21 11:50 | 48.11904 | 16.56991 | 624 ft | 2 kts | 116° |
| 2026-04-21 11:50 | 48.11907 | 16.56984 | 620 ft | 0 kts | 116° |
| 2026-04-21 11:53 | 48.11888 | 16.57041 | 618 ft | 15 kts | 116° |
| 2026-04-21 11:54 | 48.11849 | 16.57226 | 609 ft | 18 kts | 107° |
| 2026-04-21 11:54 | 48.11789 | 16.57351 | 621 ft | 13 kts | 155° |
| 2026-04-21 11:54 | 48.11687 | 16.57397 | 613 ft | 16 kts | 164° |
| 2026-04-21 11:54 | 48.11573 | 16.57445 | 613 ft | 17 kts | 164° |
| 2026-04-21 11:55 | 48.11461 | 16.57438 | 609 ft | 17 kts | 205° |
| 2026-04-21 11:55 | 48.11354 | 16.57360 | 613 ft | 17 kts | 206° |
| 2026-04-21 11:55 | 48.11255 | 16.57290 | 612 ft | 14 kts | 201° |
| 2026-04-21 11:55 | 48.11185 | 16.57345 | 613 ft | 12 kts | 121° |
| 2026-04-21 11:56 | 48.11142 | 16.57479 | 621 ft | 17 kts | 116° |
| 2026-04-21 11:56 | 48.11093 | 16.57622 | 619 ft | 11 kts | 125° |
| 2026-04-21 11:56 | 48.11031 | 16.57637 | 609 ft | 9 kts | 200° |
| 2026-04-21 11:56 | 48.10976 | 16.57598 | 618 ft | 9 kts | 206° |
| 2026-04-21 11:57 | 48.10919 | 16.57548 | 618 ft | 7 kts | 237° |
| 2026-04-21 11:57 | 48.10932 | 16.57481 | 614 ft | 6 kts | 295° |
| 2026-04-21 11:57 | 48.10969 | 16.57369 | 623 ft | 22 kts | 296° |
| 2026-04-21 11:57 | 48.11135 | 16.56860 | 612 ft | 90 kts | 296° |
| 2026-04-21 11:58 | 48.11502 | 16.55730 | 620 ft | 149 kts | 296° |
| 2026-04-21 11:58 | 48.12000 | 16.54186 | 994 ft | 166 kts | 295° |
| 2026-04-21 11:58 | 48.12083 | 16.52453 | 1695 ft | 180 kts | 250° |
| 2026-04-21 11:58 | 48.11256 | 16.50905 | 2001 ft | 206 kts | 224° |
| 2026-04-21 11:59 | 48.10070 | 16.49514 | 2227 ft | 228 kts | 220° |
| 2026-04-21 11:59 | 48.08699 | 16.48041 | 2420 ft | 257 kts | 216° |
| 2026-04-21 11:59 | 48.06968 | 16.47139 | 3013 ft | 275 kts | 183° |
| 2026-04-21 11:59 | 48.05040 | 16.47328 | 3836 ft | 280 kts | 173° |
| 2026-04-21 12:00 | 48.03097 | 16.47735 | 4640 ft | 285 kts | 171° |
| 2026-04-21 12:00 | 48.01137 | 16.48199 | 5071 ft | 284 kts | 171° |
| 2026-04-21 12:00 | 47.99174 | 16.48656 | 5868 ft | 287 kts | 171° |
| 2026-04-21 12:00 | 47.97184 | 16.48788 | 6725 ft | 287 kts | 188° |
| 2026-04-21 12:01 | 47.95275 | 16.47909 | 7437 ft | 290 kts | 208° |
| 2026-04-21 12:01 | 47.93480 | 16.46524 | 8244 ft | 291 kts | 209° |
| 2026-04-21 12:01 | 47.91680 | 16.45113 | 9019 ft | 293 kts | 209° |
| 2026-04-21 12:01 | 47.89834 | 16.43744 | 9716 ft | 299 kts | 201° |
| 2026-04-21 12:02 | 47.87804 | 16.43002 | 10399 ft | 303 kts | 185° |
| 2026-04-21 12:02 | 47.83445 | 16.43938 | 10940 ft | 340 kts | 164° |
| 2026-04-21 12:02 | 47.81098 | 16.44893 | 11075 ft | 360 kts | 164° |
| 2026-04-21 12:03 | 47.78630 | 16.45891 | 11356 ft | 372 kts | 165° |
| 2026-04-21 12:03 | 47.76116 | 16.46898 | 11944 ft | 376 kts | 165° |
| 2026-04-21 12:03 | 47.74438 | 16.47564 | 12386 ft | 377 kts | 165° |
| 2026-04-21 12:03 | 47.71882 | 16.48573 | 12947 ft | 382 kts | 166° |
| 2026-04-21 12:04 | 47.69298 | 16.49609 | 13458 ft | 387 kts | 163° |
| 2026-04-21 12:04 | 47.66817 | 16.51163 | 14038 ft | 390 kts | 151° |
| 2026-04-21 12:04 | 47.64585 | 16.53461 | 14540 ft | 393 kts | 139° |
| 2026-04-21 12:04 | 47.62705 | 16.56431 | 14990 ft | 397 kts | 126° |
| 2026-04-21 12:05 | 47.61270 | 16.59928 | 15429 ft | 400 kts | 114° |
| 2026-04-21 12:05 | 47.60150 | 16.63723 | 15891 ft | 402 kts | 112° |
| 2026-04-21 12:05 | 47.58888 | 16.67434 | 16363 ft | 405 kts | 122° |
| 2026-04-21 12:05 | 47.57122 | 16.70683 | 16819 ft | 408 kts | 136° |
| 2026-04-21 12:06 | 47.54888 | 16.73288 | 17190 ft | 410 kts | 149° |
| 2026-04-21 12:06 | 47.52321 | 16.75082 | 17703 ft | 408 kts | 162° |
| 2026-04-21 12:06 | 47.49563 | 16.76029 | 18118 ft | 408 kts | 175° |
| 2026-04-21 12:06 | 47.46719 | 16.76339 | 18429 ft | 412 kts | 178° |
| 2026-04-21 12:07 | 47.43855 | 16.76613 | 18826 ft | 413 kts | 178° |
| 2026-04-21 12:07 | 47.40982 | 16.76886 | 19177 ft | 415 kts | 178° |
| 2026-04-21 12:07 | 47.38091 | 16.77157 | 19504 ft | 418 kts | 179° |
| 2026-04-21 12:07 | 47.35181 | 16.77430 | 19886 ft | 420 kts | 179° |
| 2026-04-21 12:08 | 47.32254 | 16.77708 | 20236 ft | 423 kts | 179° |
| 2026-04-21 12:08 | 47.29308 | 16.77989 | 20587 ft | 426 kts | 178° |
| 2026-04-21 12:08 | 47.26352 | 16.78273 | 21054 ft | 426 kts | 178° |
| 2026-04-21 12:08 | 47.23389 | 16.78554 | 21462 ft | 428 kts | 178° |
| 2026-04-21 12:09 | 47.20418 | 16.78832 | 21892 ft | 429 kts | 178° |
| 2026-04-21 12:09 | 47.17432 | 16.79117 | 22288 ft | 431 kts | 178° |
| 2026-04-21 12:09 | 47.14434 | 16.79406 | 22687 ft | 433 kts | 178° |
| 2026-04-21 12:09 | 47.11424 | 16.79695 | 23057 ft | 435 kts | 179° |
| 2026-04-21 12:10 | 47.08396 | 16.79983 | 23442 ft | 437 kts | 179° |
| 2026-04-21 12:10 | 47.05353 | 16.80267 | 23783 ft | 439 kts | 178° |
| 2026-04-21 12:10 | 47.02299 | 16.80548 | 24090 ft | 441 kts | 179° |
| 2026-04-21 12:10 | 46.99231 | 16.80831 | 24392 ft | 443 kts | 179° |
| 2026-04-21 12:11 | 46.96151 | 16.81118 | 24715 ft | 444 kts | 178° |
| 2026-04-21 12:11 | 46.93082 | 16.81671 | 25054 ft | 447 kts | 169° |
| 2026-04-21 12:11 | 46.90105 | 16.83030 | 25353 ft | 452 kts | 159° |
| 2026-04-21 12:11 | 46.87330 | 16.85224 | 25611 ft | 457 kts | 147° |
| 2026-04-21 12:12 | 46.84858 | 16.88176 | 25847 ft | 462 kts | 136° |
| 2026-04-21 12:12 | 46.82791 | 16.91791 | 26096 ft | 467 kts | 125° |
| 2026-04-21 12:12 | 46.81047 | 16.95805 | 26336 ft | 470 kts | 123° |
| 2026-04-21 12:12 | 46.79303 | 16.99860 | 26571 ft | 473 kts | 123° |
| 2026-04-21 12:13 | 46.77545 | 17.03934 | 26801 ft | 476 kts | 123° |
| 2026-04-21 12:13 | 46.75777 | 17.08032 | 27021 ft | 479 kts | 123° |
| 2026-04-21 12:13 | 46.73997 | 17.12153 | 27244 ft | 481 kts | 123° |
| 2026-04-21 12:13 | 46.72210 | 17.16293 | 27456 ft | 484 kts | 123° |
| 2026-04-21 12:14 | 46.70410 | 17.20452 | 27636 ft | 486 kts | 123° |
| 2026-04-21 12:14 | 46.68592 | 17.24632 | 27784 ft | 490 kts | 124° |
| 2026-04-21 12:14 | 46.66760 | 17.28835 | 27919 ft | 494 kts | 124° |
| 2026-04-21 12:14 | 46.64912 | 17.33069 | 28067 ft | 496 kts | 124° |
| 2026-04-21 12:15 | 46.63054 | 17.37317 | 28228 ft | 499 kts | 124° |
| 2026-04-21 12:15 | 46.61189 | 17.41580 | 28411 ft | 500 kts | 124° |
| 2026-04-21 12:15 | 46.59319 | 17.45847 | 28642 ft | 501 kts | 124° |
| 2026-04-21 12:15 | 46.57446 | 17.50120 | 28859 ft | 501 kts | 124° |
| 2026-04-21 12:16 | 46.55569 | 17.54395 | 29071 ft | 502 kts | 124° |
| 2026-04-21 12:16 | 46.53689 | 17.58671 | 29281 ft | 503 kts | 124° |
| 2026-04-21 12:16 | 46.51803 | 17.62954 | 29494 ft | 504 kts | 124° |
| 2026-04-21 12:16 | 46.49909 | 17.67242 | 29671 ft | 505 kts | 124° |
| 2026-04-21 12:17 | 46.48009 | 17.71534 | 29876 ft | 506 kts | 124° |
| 2026-04-21 12:17 | 46.46104 | 17.75829 | 30086 ft | 506 kts | 125° |
| 2026-04-21 12:17 | 46.44197 | 17.80127 | 30260 ft | 507 kts | 125° |
| 2026-04-21 12:17 | 46.42286 | 17.84427 | 30447 ft | 507 kts | 125° |
| 2026-04-21 12:18 | 46.40377 | 17.88723 | 30634 ft | 507 kts | 124° |
| 2026-04-21 12:18 | 46.38467 | 17.93021 | 30834 ft | 507 kts | 124° |
| 2026-04-21 12:18 | 46.36557 | 17.97318 | 30955 ft | 509 kts | 125° |
| 2026-04-21 12:18 | 46.34633 | 18.01632 | 31085 ft | 511 kts | 125° |
| 2026-04-21 12:19 | 46.32698 | 18.05959 | 31208 ft | 513 kts | 126° |
| 2026-04-21 12:19 | 46.30750 | 18.10303 | 31347 ft | 515 kts | 126° |
| 2026-04-21 12:19 | 46.28800 | 18.14646 | 31542 ft | 515 kts | 126° |
| 2026-04-21 12:19 | 46.26874 | 18.18928 | 31730 ft | 515 kts | 126° |
| 2026-04-21 12:20 | 46.24918 | 18.23266 | 31941 ft | 515 kts | 126° |
| 2026-04-21 12:20 | 46.22964 | 18.27595 | 32160 ft | 514 kts | 125° |
| 2026-04-21 12:20 | 46.21013 | 18.31917 | 32396 ft | 513 kts | 125° |
| 2026-04-21 12:20 | 46.19063 | 18.36228 | 32626 ft | 512 kts | 125° |
| 2026-04-21 12:21 | 46.17119 | 18.40524 | 32850 ft | 511 kts | 125° |
| 2026-04-21 12:21 | 46.15176 | 18.44818 | 33063 ft | 511 kts | 125° |
| 2026-04-21 12:21 | 46.13203 | 18.49162 | 33261 ft | 511 kts | 125° |
| 2026-04-21 12:21 | 46.11256 | 18.53439 | 33463 ft | 510 kts | 125° |
| 2026-04-21 12:22 | 46.09310 | 18.57714 | 33660 ft | 510 kts | 125° |
| 2026-04-21 12:22 | 46.07388 | 18.61932 | 33816 ft | 510 kts | 126° |
| 2026-04-21 12:22 | 46.05410 | 18.66259 | 33974 ft | 511 kts | 126° |
| 2026-04-21 12:22 | 46.03457 | 18.70526 | 34109 ft | 511 kts | 126° |
| 2026-04-21 12:23 | 46.01499 | 18.74799 | 34221 ft | 512 kts | 126° |
| 2026-04-21 12:23 | 45.99560 | 18.79018 | 34336 ft | 513 kts | 126° |
| 2026-04-21 12:23 | 45.97565 | 18.83349 | 34475 ft | 513 kts | 126° |
| 2026-04-21 12:23 | 45.95594 | 18.87616 | 34635 ft | 512 kts | 127° |
| 2026-04-21 12:24 | 45.93397 | 18.91600 | 34781 ft | 507 kts | 138° |
| 2026-04-21 12:24 | 45.90792 | 18.94956 | 34914 ft | 499 kts | 148° |
| 2026-04-21 12:24 | 45.87916 | 18.97699 | 35025 ft | 496 kts | 153° |
| 2026-04-21 12:25 | 45.82096 | 19.02991 | 35042 ft | 495 kts | 153° |
| 2026-04-21 12:25 | 45.76286 | 19.08271 | 35025 ft | 494 kts | 153° |
| 2026-04-21 12:26 | 45.70465 | 19.13555 | 35043 ft | 496 kts | 153° |
| 2026-04-21 12:26 | 45.64628 | 19.18842 | 35045 ft | 497 kts | 153° |
| 2026-04-21 12:27 | 45.58787 | 19.24112 | 35047 ft | 497 kts | 153° |
| 2026-04-21 12:27 | 45.52936 | 19.29376 | 35052 ft | 497 kts | 153° |
| 2026-04-21 12:28 | 45.47083 | 19.34641 | 35039 ft | 498 kts | 154° |
| 2026-04-21 12:28 | 45.41222 | 19.39899 | 35051 ft | 498 kts | 154° |
| 2026-04-21 12:29 | 45.35353 | 19.45137 | 35057 ft | 498 kts | 154° |
| 2026-04-21 12:29 | 45.29477 | 19.50362 | 35065 ft | 498 kts | 154° |
| 2026-04-21 12:30 | 45.23468 | 19.55130 | 35041 ft | 488 kts | 165° |
| 2026-04-21 12:30 | 45.17104 | 19.58279 | 35058 ft | 484 kts | 168° |
| 2026-04-21 12:31 | 45.10728 | 19.61355 | 35061 ft | 484 kts | 168° |
| 2026-04-21 12:31 | 45.04353 | 19.64438 | 35064 ft | 484 kts | 168° |
| 2026-04-21 12:32 | 44.97972 | 19.67503 | 35063 ft | 484 kts | 168° |
| 2026-04-21 12:32 | 44.91593 | 19.70554 | 35067 ft | 484 kts | 168° |
| 2026-04-21 12:33 | 44.85212 | 19.73601 | 35068 ft | 484 kts | 168° |
| 2026-04-21 12:33 | 44.78836 | 19.76650 | 35041 ft | 484 kts | 168° |
| 2026-04-21 12:34 | 44.72460 | 19.79685 | 35044 ft | 484 kts | 168° |
| 2026-04-21 12:34 | 44.66077 | 19.82712 | 35045 ft | 484 kts | 168° |
| 2026-04-21 12:35 | 44.59693 | 19.85737 | 35029 ft | 484 kts | 168° |
| 2026-04-21 12:35 | 44.53308 | 19.88751 | 35037 ft | 484 kts | 168° |
| 2026-04-21 12:36 | 44.46927 | 19.91760 | 35054 ft | 484 kts | 168° |
| 2026-04-21 12:36 | 44.40544 | 19.94761 | 35057 ft | 484 kts | 168° |
| 2026-04-21 12:37 | 44.34204 | 19.97737 | 35038 ft | 484 kts | 168° |
| 2026-04-21 12:37 | 44.27822 | 20.00728 | 35049 ft | 484 kts | 168° |
| 2026-04-21 12:38 | 44.21441 | 20.03702 | 35050 ft | 483 kts | 168° |
| 2026-04-21 12:38 | 44.15059 | 20.06676 | 35030 ft | 483 kts | 167° |
| 2026-04-21 12:39 | 44.08692 | 20.09644 | 35049 ft | 482 kts | 167° |
| 2026-04-21 12:39 | 44.02327 | 20.12591 | 35056 ft | 482 kts | 168° |
| 2026-04-21 12:40 | 43.95961 | 20.15534 | 35036 ft | 482 kts | 167° |
| 2026-04-21 12:40 | 43.89606 | 20.18470 | 35047 ft | 481 kts | 167° |
| 2026-04-21 12:41 | 43.83267 | 20.21404 | 35049 ft | 480 kts | 167° |
| 2026-04-21 12:41 | 43.76924 | 20.24323 | 35046 ft | 480 kts | 167° |
| 2026-04-21 12:42 | 43.70589 | 20.27218 | 35034 ft | 479 kts | 167° |
| 2026-04-21 12:42 | 43.64263 | 20.30104 | 35043 ft | 478 kts | 167° |
| 2026-04-21 12:43 | 43.57946 | 20.32990 | 35044 ft | 478 kts | 167° |
| 2026-04-21 12:43 | 43.51633 | 20.35872 | 35030 ft | 478 kts | 167° |
| 2026-04-21 12:44 | 43.45327 | 20.38742 | 35038 ft | 477 kts | 167° |
| 2026-04-21 12:44 | 43.39028 | 20.41596 | 35048 ft | 477 kts | 167° |
| 2026-04-21 12:45 | 43.33791 | 20.43972 | 35050 ft | 477 kts | 167° |
| 2026-04-21 12:45 | 43.27498 | 20.46823 | 35039 ft | 476 kts | 167° |
| 2026-04-21 12:46 | 43.21206 | 20.49656 | 35054 ft | 476 kts | 167° |
| 2026-04-21 12:46 | 43.14913 | 20.52473 | 35045 ft | 475 kts | 167° |
| 2026-04-21 12:47 | 43.08631 | 20.55297 | 35030 ft | 475 kts | 167° |
| 2026-04-21 12:47 | 43.02357 | 20.58115 | 35038 ft | 475 kts | 168° |
| 2026-04-21 12:48 | 42.96124 | 20.61125 | 35025 ft | 476 kts | 165° |
| 2026-04-21 12:48 | 42.89957 | 20.64476 | 35030 ft | 477 kts | 163° |
| 2026-04-21 12:49 | 42.83796 | 20.67843 | 35035 ft | 477 kts | 164° |
| 2026-04-21 12:49 | 42.77611 | 20.71117 | 35044 ft | 477 kts | 165° |
| 2026-04-21 12:50 | 42.71421 | 20.74342 | 35044 ft | 476 kts | 165° |
| 2026-04-21 12:50 | 42.65234 | 20.77573 | 35022 ft | 476 kts | 165° |
| 2026-04-21 12:51 | 42.59042 | 20.80808 | 35029 ft | 477 kts | 165° |
| 2026-04-21 12:51 | 42.52848 | 20.84035 | 35031 ft | 477 kts | 165° |
| 2026-04-21 12:52 | 42.46646 | 20.87258 | 35022 ft | 477 kts | 164° |
| 2026-04-21 12:52 | 42.40443 | 20.90487 | 35034 ft | 477 kts | 164° |
| 2026-04-21 12:53 | 42.34243 | 20.93708 | 35040 ft | 477 kts | 164° |
| 2026-04-21 12:53 | 42.28035 | 20.96918 | 35042 ft | 478 kts | 164° |
| 2026-04-21 12:54 | 42.21832 | 21.00118 | 35006 ft | 477 kts | 164° |
| 2026-04-21 12:54 | 42.15634 | 21.03307 | 35020 ft | 477 kts | 164° |
| 2026-04-21 12:55 | 42.09577 | 21.06969 | 35017 ft | 483 kts | 152° |
| 2026-04-21 12:55 | 42.03884 | 21.11797 | 34988 ft | 484 kts | 152° |
| 2026-04-21 12:56 | 41.98183 | 21.16612 | 34997 ft | 483 kts | 152° |
| 2026-04-21 12:56 | 41.92484 | 21.21408 | 35003 ft | 483 kts | 152° |
| 2026-04-21 12:57 | 41.86788 | 21.26192 | 34992 ft | 483 kts | 152° |
| 2026-04-21 12:57 | 41.81096 | 21.30959 | 34990 ft | 482 kts | 152° |
| 2026-04-21 12:58 | 41.75405 | 21.35728 | 34969 ft | 483 kts | 152° |
| 2026-04-21 12:58 | 41.69715 | 21.40488 | 34966 ft | 482 kts | 153° |
| 2026-04-21 12:59 | 41.64027 | 21.45222 | 34964 ft | 481 kts | 152° |
| 2026-04-21 12:59 | 41.58332 | 21.49956 | 34967 ft | 482 kts | 153° |
| 2026-04-21 13:00 | 41.52635 | 21.54688 | 34955 ft | 482 kts | 153° |
| 2026-04-21 13:00 | 41.46934 | 21.59421 | 34957 ft | 483 kts | 153° |
| 2026-04-21 13:01 | 41.41227 | 21.64140 | 34957 ft | 483 kts | 153° |
| 2026-04-21 13:01 | 41.35515 | 21.68840 | 34958 ft | 482 kts | 153° |
| 2026-04-21 13:02 | 41.29803 | 21.73534 | 34932 ft | 482 kts | 153° |
| 2026-04-21 13:02 | 41.21237 | 21.80567 | 34942 ft | 482 kts | 153° |
| 2026-04-21 13:03 | 41.15562 | 21.85205 | 34940 ft | 482 kts | 153° |
| 2026-04-21 13:03 | 41.09847 | 21.89879 | 34936 ft | 483 kts | 153° |
| 2026-04-21 13:04 | 41.04180 | 21.94668 | 34911 ft | 484 kts | 150° |
| 2026-04-21 13:04 | 40.98626 | 21.99726 | 34917 ft | 485 kts | 149° |
| 2026-04-21 13:05 | 40.93108 | 22.04881 | 34921 ft | 486 kts | 149° |
| 2026-04-21 13:05 | 40.87590 | 22.10037 | 34931 ft | 486 kts | 149° |
| 2026-04-21 13:06 | 40.82044 | 22.15145 | 34916 ft | 486 kts | 149° |
| 2026-04-21 13:06 | 40.76499 | 22.20224 | 34918 ft | 485 kts | 149° |
| 2026-04-21 13:07 | 40.70961 | 22.25301 | 34919 ft | 485 kts | 149° |
| 2026-04-21 13:07 | 40.65424 | 22.30377 | 34922 ft | 485 kts | 149° |
| 2026-04-21 13:08 | 40.59877 | 22.35437 | 34926 ft | 485 kts | 149° |
| 2026-04-21 13:08 | 40.54328 | 22.40486 | 34841 ft | 486 kts | 149° |
| 2026-04-21 13:09 | 40.51547 | 22.43020 | 34590 ft | 486 kts | 149° |
| 2026-04-21 13:09 | 40.48772 | 22.45553 | 34351 ft | 486 kts | 149° |
| 2026-04-21 13:09 | 40.45994 | 22.48086 | 34125 ft | 486 kts | 150° |
| 2026-04-21 13:09 | 40.43217 | 22.50610 | 33881 ft | 486 kts | 150° |
| 2026-04-21 13:10 | 40.40431 | 22.53137 | 33006 ft | 490 kts | 150° |
| 2026-04-21 13:10 | 40.37614 | 22.55683 | 32038 ft | 493 kts | 150° |
| 2026-04-21 13:10 | 40.34779 | 22.58241 | 31085 ft | 495 kts | 150° |
| 2026-04-21 13:10 | 40.31931 | 22.60810 | 30036 ft | 499 kts | 149° |
| 2026-04-21 13:11 | 40.29060 | 22.63400 | 28852 ft | 503 kts | 149° |
| 2026-04-21 13:11 | 40.26180 | 22.66001 | 27770 ft | 503 kts | 149° |
| 2026-04-21 13:11 | 40.23304 | 22.68597 | 26870 ft | 501 kts | 149° |
| 2026-04-21 13:11 | 40.20459 | 22.71165 | 26192 ft | 494 kts | 149° |
| 2026-04-21 13:12 | 40.17644 | 22.73700 | 25436 ft | 489 kts | 149° |
| 2026-04-21 13:12 | 40.14852 | 22.76209 | 24736 ft | 485 kts | 149° |
| 2026-04-21 13:12 | 40.12081 | 22.78695 | 24032 ft | 481 kts | 149° |
| 2026-04-21 13:12 | 40.09328 | 22.81161 | 23299 ft | 477 kts | 149° |
| 2026-04-21 13:13 | 40.06606 | 22.83596 | 22599 ft | 471 kts | 149° |
| 2026-04-21 13:13 | 40.03925 | 22.85995 | 21944 ft | 464 kts | 149° |
| 2026-04-21 13:13 | 40.01282 | 22.88360 | 21328 ft | 457 kts | 149° |
| 2026-04-21 13:13 | 39.98679 | 22.90685 | 20730 ft | 450 kts | 149° |
| 2026-04-21 13:14 | 39.96117 | 22.92966 | 20106 ft | 443 kts | 149° |
| 2026-04-21 13:14 | 39.93587 | 22.95216 | 19580 ft | 435 kts | 149° |
| 2026-04-21 13:14 | 39.91111 | 22.97420 | 19050 ft | 427 kts | 149° |
| 2026-04-21 13:14 | 39.88682 | 22.99586 | 18550 ft | 419 kts | 149° |
| 2026-04-21 13:15 | 39.86295 | 23.01713 | 18036 ft | 412 kts | 149° |
| 2026-04-21 13:15 | 39.83952 | 23.03799 | 17507 ft | 404 kts | 149° |
| 2026-04-21 13:15 | 39.81648 | 23.05845 | 17072 ft | 399 kts | 149° |
| 2026-04-21 13:15 | 39.79361 | 23.07870 | 16607 ft | 396 kts | 149° |
| 2026-04-21 13:16 | 39.77094 | 23.09873 | 16139 ft | 392 kts | 149° |
| 2026-04-21 13:16 | 39.74848 | 23.11859 | 15677 ft | 389 kts | 149° |
| 2026-04-21 13:16 | 39.72622 | 23.13826 | 15198 ft | 386 kts | 149° |
| 2026-04-21 13:16 | 39.70412 | 23.15775 | 14721 ft | 382 kts | 149° |
| 2026-04-21 13:17 | 39.68222 | 23.17705 | 14228 ft | 379 kts | 149° |
| 2026-04-21 13:17 | 39.66055 | 23.19621 | 13732 ft | 375 kts | 148° |
| 2026-04-21 13:17 | 39.63904 | 23.21519 | 13184 ft | 372 kts | 148° |
| 2026-04-21 13:17 | 39.61776 | 23.23393 | 12677 ft | 368 kts | 148° |
| 2026-04-21 13:18 | 39.59664 | 23.25252 | 12159 ft | 365 kts | 148° |
| 2026-04-21 13:18 | 39.57574 | 23.27091 | 11628 ft | 362 kts | 148° |
| 2026-04-21 13:18 | 39.55495 | 23.28916 | 11114 ft | 359 kts | 148° |
| 2026-04-21 13:18 | 39.53441 | 23.30719 | 10759 ft | 351 kts | 148° |
| 2026-04-21 13:19 | 39.51464 | 23.32457 | 10620 ft | 336 kts | 148° |
| 2026-04-21 13:19 | 39.49571 | 23.34120 | 10506 ft | 322 kts | 149° |
| 2026-04-21 13:19 | 39.47749 | 23.35717 | 10312 ft | 312 kts | 149° |
| 2026-04-21 13:19 | 39.45967 | 23.37275 | 10046 ft | 307 kts | 149° |
| 2026-04-21 13:20 | 39.44799 | 23.38295 | 9885 ft | 305 kts | 149° |
| 2026-04-21 13:20 | 39.42450 | 23.40347 | 9692 ft | 304 kts | 149° |
| 2026-04-21 13:20 | 39.40699 | 23.41878 | 9559 ft | 304 kts | 149° |
| 2026-04-21 13:20 | 39.38952 | 23.43407 | 9414 ft | 303 kts | 148° |
| 2026-04-21 13:21 | 39.37212 | 23.44930 | 9081 ft | 301 kts | 148° |
| 2026-04-21 13:21 | 39.35486 | 23.46438 | 8713 ft | 298 kts | 149° |
| 2026-04-21 13:21 | 39.33771 | 23.47937 | 8341 ft | 297 kts | 149° |
| 2026-04-21 13:21 | 39.32066 | 23.49423 | 7963 ft | 295 kts | 149° |
| 2026-04-21 13:22 | 39.30369 | 23.50898 | 7603 ft | 293 kts | 149° |
| 2026-04-21 13:22 | 39.28681 | 23.52366 | 7237 ft | 292 kts | 149° |
| 2026-04-21 13:22 | 39.27003 | 23.53826 | 6879 ft | 290 kts | 149° |
| 2026-04-21 13:22 | 39.25335 | 23.55279 | 6509 ft | 288 kts | 149° |
| 2026-04-21 13:23 | 39.23680 | 23.56718 | 6146 ft | 285 kts | 149° |
| 2026-04-21 13:23 | 39.22045 | 23.58139 | 5782 ft | 282 kts | 149° |
| 2026-04-21 13:23 | 39.20431 | 23.59540 | 5430 ft | 278 kts | 149° |
| 2026-04-21 13:23 | 39.18831 | 23.60929 | 5086 ft | 276 kts | 149° |
| 2026-04-21 13:24 | 39.17255 | 23.62338 | 4772 ft | 274 kts | 142° |
| 2026-04-21 13:24 | 39.16211 | 23.64310 | 4700 ft | 265 kts | 106° |
| 2026-04-21 13:24 | 39.16250 | 23.66573 | 4659 ft | 247 kts | 67° |
| 2026-04-21 13:24 | 39.17266 | 23.68184 | 4588 ft | 228 kts | 25° |
| 2026-04-21 13:25 | 39.18744 | 23.68509 | 4541 ft | 213 kts | 341° |
| 2026-04-21 13:25 | 39.20081 | 23.67745 | 4495 ft | 211 kts | 328° |
| 2026-04-21 13:25 | 39.21384 | 23.66872 | 4362 ft | 212 kts | 328° |
| 2026-04-21 13:25 | 39.22690 | 23.65994 | 4154 ft | 211 kts | 328° |
| 2026-04-21 13:26 | 39.23992 | 23.65116 | 3930 ft | 211 kts | 328° |
| 2026-04-21 13:26 | 39.24871 | 23.64522 | 3775 ft | 211 kts | 328° |
| 2026-04-21 13:26 | 39.26174 | 23.63639 | 3532 ft | 212 kts | 328° |
| 2026-04-21 13:26 | 39.27477 | 23.62752 | 3307 ft | 212 kts | 328° |
| 2026-04-21 13:27 | 39.28783 | 23.61862 | 3065 ft | 212 kts | 328° |
| 2026-04-21 13:27 | 39.30203 | 23.61311 | 2829 ft | 218 kts | 352° |
| 2026-04-21 13:27 | 39.31687 | 23.61033 | 2689 ft | 213 kts | 332° |
| 2026-04-21 13:27 | 39.32685 | 23.59759 | 2546 ft | 202 kts | 287° |
| 2026-04-21 13:28 | 39.32654 | 23.58032 | 2442 ft | 195 kts | 242° |
| 2026-04-21 13:28 | 39.31743 | 23.56756 | 2322 ft | 195 kts | 220° |
| 2026-04-21 13:28 | 39.30640 | 23.55749 | 2179 ft | 192 kts | 208° |
| 2026-04-21 13:28 | 39.29432 | 23.55162 | 2053 ft | 179 kts | 199° |
| 2026-04-21 13:29 | 39.28290 | 23.54683 | 1917 ft | 165 kts | 200° |
| 2026-04-21 13:29 | 39.27239 | 23.54225 | 1822 ft | 155 kts | 200° |
| 2026-04-21 13:29 | 39.25947 | 23.53665 | 1719 ft | 144 kts | 199° |
| 2026-04-21 13:29 | 39.25305 | 23.53397 | 1596 ft | 143 kts | 198° |
| 2026-04-21 13:30 | 39.24356 | 23.53075 | 1355 ft | 140 kts | 191° |
| 2026-04-21 13:30 | 39.23401 | 23.52872 | 1170 ft | 138 kts | 191° |
| 2026-04-21 13:30 | 39.22480 | 23.52514 | 1006 ft | 139 kts | 201° |
| 2026-04-21 13:30 | 39.21582 | 23.52061 | 794 ft | 138 kts | 196° |
| 2026-04-21 13:31 | 39.20662 | 23.51696 | 592 ft | 138 kts | 200° |
| 2026-04-21 13:31 | 39.19777 | 23.51242 | 407 ft | 136 kts | 197° |
| 2026-04-21 13:31 | 39.18867 | 23.50865 | 217 ft | 138 kts | 200° |
| 2026-04-21 13:31 | 39.17974 | 23.50471 | 47 ft | 130 kts | 196° |
| 2026-04-21 13:32 | 39.17419 | 23.50233 | 32 ft | 34 kts | 199° |
| 2026-04-21 13:32 | 39.17210 | 23.50134 | 22 ft | 19 kts | 199° |
| 2026-04-21 13:32 | 39.17117 | 23.50093 | 20 ft | 8 kts | 199° |
| 2026-04-21 13:32 | 39.17065 | 23.50053 | 18 ft | 10 kts | 232° |
| 2026-04-21 13:33 | 39.17018 | 23.50047 | 17 ft | 6 kts | 94° |
| 2026-04-21 13:33 | 39.17060 | 23.50074 | 18 ft | 12 kts | 15° |
| 2026-04-21 13:33 | 39.17164 | 23.50115 | 21 ft | 20 kts | 19° |
| 2026-04-21 13:33 | 39.17311 | 23.50179 | 29 ft | 22 kts | 18° |
| 2026-04-21 13:34 | 39.17436 | 23.50236 | 32 ft | 17 kts | 19° |
| 2026-04-21 13:34 | 39.17538 | 23.50280 | 34 ft | 14 kts | 19° |
| 2026-04-21 13:34 | 39.17614 | 23.50314 | 39 ft | 10 kts | 19° |
| 2026-04-21 13:34 | 39.17693 | 23.50319 | 39 ft | 12 kts | 312° |
| 2026-04-21 13:35 | 39.17753 | 23.50259 | 40 ft | 12 kts | 8° |
| 2026-04-21 13:35 | 39.17827 | 23.50288 | 39 ft | 11 kts | 20° |
| 2026-04-21 13:35 | 39.17905 | 23.50323 | 43 ft | 7 kts | 19° |
| 2026-04-21 13:35 | 39.17928 | 23.50320 | 43 ft | 3 kts | 322° |
| 2026-04-21 13:36 | 39.17950 | 23.50262 | 50 ft | 5 kts | 289° |
| 2026-04-21 13:36 | 39.17953 | 23.50253 | 53 ft | 0 kts | 289° |
| 2026-04-21 13:36 | 39.17953 | 23.50250 | 54 ft | 0 kts | 289° |